createdAt,value
2018-09-08T00:01:34.849Z,3.27
2018-09-08T00:04:04.446Z,4.70
2018-09-08T00:06:35.218Z,4.97
2018-09-08T00:09:07.336Z,5.27
2018-09-08T00:11:37.289Z,4.57
2018-09-08T00:14:07.346Z,4.40
2018-09-08T00:16:42.379Z,4.70
2018-09-08T00:19:17.013Z,7.70
2018-09-08T00:21:52.169Z,4.97
2018-09-08T00:24:26.917Z,4.80
2018-09-08T00:26:55.421Z,5.20
2018-09-08T00:29:27.314Z,3.73
2018-09-08T00:31:58.053Z,3.93
2018-09-08T00:34:27.619Z,4.80
2018-09-08T00:36:57.580Z,3.23
2018-09-08T00:39:27.122Z,3.77
2018-09-08T00:41:56.788Z,2.87
2018-09-08T00:44:26.419Z,3.47
2018-09-08T00:46:56.090Z,4.00
2018-09-08T00:49:26.229Z,3.80
2018-09-08T00:51:55.853Z,3.70
2018-09-08T00:54:25.494Z,4.30
2018-09-08T00:56:54.974Z,3.30
2018-09-08T00:59:24.491Z,3.60
2018-09-08T01:01:54.160Z,3.30
2018-09-08T01:04:23.711Z,3.50
2018-09-08T01:06:53.319Z,2.93
2018-09-08T01:09:22.864Z,3.77
2018-09-08T01:11:52.342Z,3.27
2018-09-08T01:14:21.957Z,3.73
2018-09-08T01:16:51.645Z,3.63
2018-09-08T01:19:21.360Z,3.00
2018-09-08T01:21:51.145Z,3.03
2018-09-08T01:24:20.717Z,3.37
2018-09-08T01:26:50.585Z,2.37
2018-09-08T01:29:20.106Z,2.60
2018-09-08T01:31:49.745Z,2.77
2018-09-08T01:34:19.403Z,2.43
2018-09-08T01:36:49.194Z,2.63
2018-09-08T01:39:18.737Z,3.00
2018-09-08T01:41:48.336Z,3.53
2018-09-08T01:44:17.924Z,2.97
2018-09-08T01:46:47.453Z,3.63
2018-09-08T01:49:17.148Z,3.00
2018-09-08T01:51:53.476Z,2.63
2018-09-08T01:54:23.126Z,3.00
2018-09-08T01:56:52.996Z,2.43
2018-09-08T01:59:22.455Z,2.47
2018-09-08T02:01:52.140Z,2.83
2018-09-08T02:04:21.687Z,2.20
2018-09-08T02:06:51.224Z,3.90
2018-09-08T02:09:20.784Z,2.87
2018-09-08T02:11:50.783Z,2.50
2018-09-08T02:14:20.091Z,2.40
2018-09-08T02:16:49.893Z,2.13
2018-09-08T02:19:19.434Z,3.03
2018-09-08T02:21:49.162Z,2.37
2018-09-08T02:24:18.841Z,2.60
2018-09-08T02:26:50.709Z,2.70
2018-09-08T02:29:20.950Z,2.60
2018-09-08T02:31:50.732Z,2.00
2018-09-08T02:34:20.351Z,3.07
2018-09-08T02:36:49.863Z,2.03
2018-09-08T02:39:20.057Z,2.20
2018-09-08T02:41:49.576Z,2.50
2018-09-08T02:44:19.300Z,2.30
2018-09-08T02:46:48.976Z,2.40
2018-09-08T02:49:18.452Z,2.23
2018-09-08T02:51:46.235Z,2.30
2018-09-08T02:54:13.973Z,1.97
2018-09-08T02:56:41.715Z,2.40
2018-09-08T02:59:09.453Z,2.00
2018-09-08T03:01:37.188Z,2.00
2018-09-08T03:04:04.948Z,2.03
2018-09-08T03:06:33.190Z,2.60
2018-09-08T03:09:00.930Z,2.50
2018-09-08T03:11:28.709Z,2.07
2018-09-08T03:13:56.448Z,2.57
2018-09-08T03:16:24.207Z,2.80
2018-09-08T03:18:51.988Z,2.50
2018-09-08T03:21:19.712Z,2.50
2018-09-08T03:23:47.455Z,2.30
2018-09-08T03:26:15.194Z,2.30
2018-09-08T03:28:42.945Z,3.20
2018-09-08T03:31:10.684Z,2.13
2018-09-08T03:33:38.436Z,2.07
2018-09-08T03:36:06.173Z,2.37
2018-09-08T03:38:34.022Z,1.70
2018-09-08T03:41:01.889Z,2.30
2018-09-08T03:43:29.637Z,2.13
2018-09-08T03:45:57.377Z,2.40
2018-09-08T03:48:25.122Z,2.00
2018-09-08T03:50:52.890Z,2.13
2018-09-08T03:53:20.638Z,2.20
2018-09-08T03:55:48.377Z,2.13
2018-09-08T03:58:16.131Z,1.77
2018-09-08T04:00:43.916Z,2.03
2018-09-08T04:03:13.652Z,2.07
2018-09-08T04:05:43.301Z,2.30
2018-09-08T04:08:12.645Z,1.97
2018-09-08T04:10:42.335Z,1.83
2018-09-08T04:13:12.004Z,1.93
2018-09-08T04:15:41.638Z,2.33
2018-09-08T04:18:11.797Z,1.83
2018-09-08T04:20:41.489Z,1.93
2018-09-08T04:23:11.044Z,1.77
2018-09-08T04:25:40.730Z,2.20
2018-09-08T04:28:10.362Z,1.90
2018-09-08T04:30:40.009Z,2.23
2018-09-08T04:33:09.549Z,1.90
2018-09-08T04:35:39.027Z,2.33
2018-09-08T04:38:08.707Z,1.50
2018-09-08T04:40:38.188Z,2.03
2018-09-08T04:43:08.357Z,2.17
2018-09-08T04:45:37.854Z,1.90
2018-09-08T04:48:07.654Z,1.63
2018-09-08T04:50:37.488Z,1.83
2018-09-08T04:53:07.456Z,2.10
2018-09-08T04:55:37.509Z,2.03
2018-09-08T04:58:07.469Z,2.00
2018-09-08T05:00:36.912Z,1.97
2018-09-08T05:03:06.927Z,2.43
2018-09-08T05:05:36.471Z,1.90
2018-09-08T05:08:06.182Z,1.93
2018-09-08T05:10:35.848Z,2.10
2018-09-08T05:13:05.693Z,1.67
2018-09-08T05:15:35.878Z,2.23
2018-09-08T05:18:05.913Z,1.97
2018-09-08T05:20:35.424Z,2.10
2018-09-08T05:23:05.115Z,1.77
2018-09-08T05:25:34.791Z,2.47
2018-09-08T05:28:04.319Z,2.00
2018-09-08T05:30:33.975Z,1.83
2018-09-08T05:33:03.648Z,1.90
2018-09-08T05:35:33.250Z,1.70
2018-09-08T05:38:02.796Z,1.97
2018-09-08T05:40:32.454Z,1.83
2018-09-08T05:43:02.047Z,2.37
2018-09-08T05:45:38.165Z,1.80
2018-09-08T05:48:07.715Z,1.80
2018-09-08T05:50:37.154Z,2.07
2018-09-08T05:53:06.883Z,1.33
2018-09-08T05:55:36.657Z,1.60
2018-09-08T05:58:07.701Z,1.50
2018-09-08T06:00:37.256Z,1.57
2018-09-08T06:03:09.866Z,1.37
2018-09-08T06:05:39.428Z,1.60
2018-09-08T06:08:11.977Z,1.50
2018-09-08T06:10:41.698Z,1.97
2018-09-08T06:13:11.739Z,1.63
2018-09-08T06:15:44.213Z,1.47
2018-09-08T06:18:13.815Z,1.60
2018-09-08T06:20:43.281Z,1.20
2018-09-08T06:23:12.968Z,1.47
2018-09-08T06:25:42.622Z,1.10
2018-09-08T06:28:12.349Z,0.70
2018-09-08T06:30:42.053Z,0.83
2018-09-08T06:33:11.634Z,0.83
2018-09-08T06:35:41.309Z,2.23
2018-09-08T06:38:10.985Z,0.93
2018-09-08T06:40:40.409Z,0.80
2018-09-08T06:43:10.307Z,0.90
2018-09-08T06:45:40.132Z,0.87
2018-09-08T06:48:09.753Z,0.83
2018-09-08T06:50:39.209Z,1.10
2018-09-08T06:53:08.835Z,0.63
2018-09-08T06:55:38.952Z,0.90
2018-09-08T06:58:08.825Z,0.80
2018-09-08T07:00:38.472Z,0.80
2018-09-08T07:03:07.653Z,1.00
2018-09-08T07:05:37.180Z,0.83
2018-09-08T07:08:06.981Z,1.20
2018-09-08T07:10:36.555Z,1.00
2018-09-08T07:13:06.218Z,0.90
2018-09-08T07:15:35.925Z,1.20
2018-09-08T07:18:05.629Z,0.90
2018-09-08T07:20:35.238Z,0.70
2018-09-08T07:23:04.821Z,1.00
2018-09-08T07:25:34.557Z,0.90
2018-09-08T07:28:04.141Z,0.73
2018-09-08T07:30:33.743Z,0.70
2018-09-08T07:33:03.236Z,0.90
2018-09-08T07:35:32.972Z,0.60
2018-09-08T07:38:02.603Z,0.80
2018-09-08T07:40:32.301Z,0.80
2018-09-08T07:43:02.279Z,0.90
2018-09-08T07:45:31.980Z,0.90
2018-09-08T07:48:02.336Z,0.80
2018-09-08T07:50:32.071Z,0.80
2018-09-08T07:53:02.655Z,0.93
2018-09-08T07:55:32.282Z,1.20
2018-09-08T07:58:02.022Z,0.87
2018-09-08T08:00:31.615Z,0.90
2018-09-08T08:03:01.250Z,1.10
2018-09-08T08:05:37.691Z,0.97
2018-09-08T08:08:07.350Z,0.90
2018-09-08T08:10:36.901Z,0.80
2018-09-08T08:13:06.597Z,1.03
2018-09-08T08:15:36.449Z,0.67
2018-09-08T08:18:06.157Z,0.80
2018-09-08T08:20:35.887Z,2.13
2018-09-08T08:23:05.486Z,0.70
2018-09-08T08:25:35.085Z,0.80
2018-09-08T08:28:05.322Z,0.90
2018-09-08T08:30:34.986Z,0.70
2018-09-08T08:33:05.194Z,0.77
2018-09-08T08:35:34.930Z,1.00
2018-09-08T08:38:04.636Z,0.80
2018-09-08T08:40:34.362Z,0.90
2018-09-08T08:43:04.102Z,1.00
2018-09-08T08:45:34.206Z,1.27
2018-09-08T08:48:04.943Z,0.60
2018-09-08T08:50:51.515Z,1.07
2018-09-08T08:53:38.172Z,0.60
2018-09-08T08:56:07.920Z,0.77
2018-09-08T08:58:37.382Z,0.77
2018-09-08T09:01:07.076Z,0.93
2018-09-08T09:03:36.780Z,0.80
2018-09-08T09:06:06.517Z,1.00
2018-09-08T09:08:36.515Z,0.90
2018-09-08T09:11:05.885Z,1.00
2018-09-08T09:13:35.801Z,0.80
2018-09-08T09:16:05.793Z,0.70
2018-09-08T09:18:52.308Z,1.00
2018-09-08T09:21:38.427Z,1.03
2018-09-08T09:25:02.000Z,1.27
2018-09-08T09:27:33.725Z,0.70
2018-09-08T09:30:03.867Z,1.10
2018-09-08T09:32:33.505Z,1.10
2018-09-08T09:35:03.110Z,0.90
2018-09-08T09:37:33.024Z,0.90
2018-09-08T09:40:02.552Z,1.37
2018-09-08T09:42:32.413Z,0.90
2018-09-08T09:45:05.098Z,1.03
2018-09-08T09:47:34.752Z,0.70
2018-09-08T09:50:05.908Z,0.70
2018-09-08T09:52:36.095Z,1.10
2018-09-08T09:55:05.824Z,0.87
2018-09-08T09:57:35.841Z,1.00
2018-09-08T10:00:08.313Z,1.20
2018-09-08T10:02:41.153Z,1.03
2018-09-08T10:05:13.337Z,1.00
2018-09-08T10:07:43.247Z,0.87
2018-09-08T10:10:18.830Z,1.00
2018-09-08T10:12:48.537Z,0.77
2018-09-08T10:15:18.194Z,1.10
2018-09-08T10:17:47.849Z,0.80
2018-09-08T10:20:19.234Z,0.90
2018-09-08T10:22:48.802Z,2.97
2018-09-08T10:25:19.436Z,1.40
2018-09-08T10:27:49.532Z,1.53
2018-09-08T10:30:19.280Z,1.50
2018-09-08T10:32:48.944Z,0.97
2018-09-08T10:35:18.605Z,1.27
2018-09-08T10:37:48.153Z,1.00
2018-09-08T10:40:17.788Z,0.80
2018-09-08T10:42:47.125Z,0.90
2018-09-08T10:45:16.772Z,1.00
2018-09-08T10:47:46.547Z,1.00
2018-09-08T10:50:16.440Z,1.10
2018-09-08T10:52:47.129Z,0.60
2018-09-08T10:55:16.640Z,0.80
2018-09-08T10:57:46.292Z,0.87
2018-09-08T11:00:16.689Z,1.20
2018-09-08T11:02:46.476Z,1.30
2018-09-08T11:05:15.881Z,1.00
2018-09-08T11:07:45.653Z,1.10
2018-09-08T11:10:15.215Z,1.23
2018-09-08T11:12:44.814Z,1.17
2018-09-08T11:15:14.430Z,1.00
2018-09-08T11:17:44.147Z,0.90
2018-09-08T11:20:13.852Z,1.00
2018-09-08T11:22:43.972Z,1.03
2018-09-08T11:25:13.594Z,1.00
2018-09-08T11:27:43.281Z,1.20
2018-09-08T11:30:12.961Z,0.97
2018-09-08T11:32:42.545Z,0.80
2018-09-08T11:35:12.180Z,1.30
2018-09-08T11:37:41.807Z,0.80
2018-09-08T11:40:11.433Z,1.30
2018-09-08T11:42:41.237Z,0.90
2018-09-08T11:45:11.028Z,1.37
2018-09-08T11:47:40.602Z,1.20
2018-09-08T11:50:10.241Z,0.83
2018-09-08T11:52:40.127Z,1.20
2018-09-08T11:55:09.709Z,1.00
2018-09-08T11:57:39.557Z,1.20
2018-09-08T12:00:09.185Z,0.87
2018-09-08T12:02:38.723Z,1.10
2018-09-08T12:05:08.493Z,1.10
2018-09-08T12:07:38.213Z,1.27
2018-09-08T12:10:07.913Z,1.07
2018-09-08T12:12:37.645Z,1.00
2018-09-08T12:15:07.805Z,1.13
2018-09-08T12:17:37.348Z,1.17
2018-09-08T12:20:08.593Z,0.70
2018-09-08T12:22:38.305Z,1.00
2018-09-08T12:25:08.191Z,1.23
2018-09-08T12:27:37.916Z,1.00
2018-09-08T12:30:07.748Z,1.17
2018-09-08T12:32:37.784Z,1.40
2018-09-08T12:35:07.534Z,1.03
2018-09-08T12:37:37.534Z,0.73
2018-09-08T12:40:07.253Z,1.00
2018-09-08T12:42:37.348Z,0.80
2018-09-08T12:45:07.956Z,1.50
2018-09-08T12:47:37.873Z,1.43
2018-09-08T12:50:07.751Z,1.23
2018-09-08T12:52:37.388Z,0.83
2018-09-08T12:55:07.536Z,1.60
2018-09-08T12:57:37.383Z,1.00
2018-09-08T13:00:07.555Z,1.17
2018-09-08T13:02:37.409Z,0.90
2018-09-08T13:05:07.280Z,1.00
2018-09-08T13:07:37.087Z,1.10
2018-09-08T13:10:06.888Z,0.80
2018-09-08T13:12:36.556Z,1.00
2018-09-08T13:15:07.345Z,1.07
2018-09-08T13:17:36.974Z,1.30
2018-09-08T13:20:06.755Z,1.23
2018-09-08T13:22:36.469Z,1.60
2018-09-08T13:25:06.539Z,1.30
2018-09-08T13:27:36.229Z,0.87
2018-09-08T13:30:06.851Z,0.80
2018-09-08T13:32:36.606Z,1.27
2018-09-08T13:35:06.638Z,1.10
2018-09-08T13:37:36.634Z,0.90
2018-09-08T13:40:06.630Z,0.90
2018-09-08T13:42:36.410Z,1.20
2018-09-08T13:45:06.614Z,1.20
2018-09-08T13:47:36.250Z,0.90
2018-09-08T13:50:06.229Z,1.10
2018-09-08T13:52:35.963Z,1.10
2018-09-08T13:55:05.743Z,1.20
2018-09-08T13:57:35.332Z,0.80
2018-09-08T14:00:05.847Z,1.07
2018-09-08T14:02:35.732Z,1.30
2018-09-08T14:05:05.980Z,1.17
2018-09-08T14:07:35.835Z,0.80
2018-09-08T14:10:05.589Z,1.07
2018-09-08T14:12:35.351Z,0.87
2018-09-08T14:15:05.185Z,0.90
2018-09-08T14:17:35.130Z,0.83
2018-09-08T14:20:05.210Z,1.00
2018-09-08T14:22:36.762Z,1.27
2018-09-08T14:25:06.906Z,0.90
2018-09-08T14:27:36.938Z,1.10
2018-09-08T14:30:07.176Z,1.10
2018-09-08T14:32:36.926Z,2.00
2018-09-08T14:35:06.778Z,1.03
2018-09-08T14:37:36.345Z,1.40
2018-09-08T14:40:06.495Z,1.17
2018-09-08T14:42:36.133Z,0.90
2018-09-08T14:45:05.997Z,1.60
2018-09-08T14:47:36.390Z,2.00
2018-09-08T14:50:05.915Z,0.97
2018-09-08T14:52:35.762Z,1.17
2018-09-08T14:55:06.081Z,1.00
2018-09-08T14:57:35.838Z,0.97
2018-09-08T15:00:06.126Z,0.90
2018-09-08T15:02:35.802Z,0.90
2018-09-08T15:05:05.632Z,0.93
2018-09-08T15:07:36.496Z,1.00
2018-09-08T15:10:06.791Z,1.40
2018-09-08T15:12:36.974Z,1.00
2018-09-08T15:15:07.197Z,0.90
2018-09-08T15:17:36.706Z,1.17
2018-09-08T15:20:06.858Z,1.37
2018-09-08T15:22:36.401Z,0.83
2018-09-08T15:25:06.470Z,0.80
2018-09-08T15:27:36.287Z,1.00
2018-09-08T15:30:07.127Z,1.00
2018-09-08T15:32:36.696Z,0.90
2018-09-08T15:35:07.471Z,1.00
2018-09-08T15:37:37.214Z,1.20
2018-09-08T15:40:06.875Z,1.27
2018-09-08T15:42:36.545Z,0.90
2018-09-08T15:45:06.219Z,0.90
2018-09-08T15:47:36.013Z,1.17
2018-09-08T15:50:06.297Z,1.40
2018-09-08T15:52:36.103Z,0.90
2018-09-08T15:55:05.970Z,1.27
2018-09-08T15:57:35.460Z,0.90
2018-09-08T16:00:05.205Z,0.70
2018-09-08T16:02:34.965Z,0.80
2018-09-08T16:05:04.555Z,1.10
2018-09-08T16:07:34.188Z,1.10
2018-09-08T16:10:03.887Z,1.27
2018-09-08T16:12:40.071Z,1.40
2018-09-08T16:15:10.315Z,1.63
2018-09-08T16:17:40.165Z,1.17
2018-09-08T16:20:10.233Z,1.83
2018-09-08T16:22:40.440Z,1.13
2018-09-08T16:25:10.390Z,3.27
2018-09-08T16:27:40.171Z,1.33
2018-09-08T16:30:10.053Z,0.90
2018-09-08T16:32:39.943Z,2.60
2018-09-08T16:35:09.824Z,1.60
2018-09-08T16:37:39.576Z,1.20
2018-09-08T16:40:09.318Z,1.63
2018-09-08T16:42:39.039Z,2.63
2018-09-08T16:45:08.703Z,2.53
2018-09-08T16:47:38.188Z,1.70
2018-09-08T16:50:08.080Z,1.80
2018-09-08T16:52:37.713Z,2.20
2018-09-08T16:55:07.601Z,4.17
2018-09-08T16:57:37.287Z,4.87
2018-09-08T17:00:07.170Z,3.10
2018-09-08T17:02:36.819Z,3.67
2018-09-08T17:05:06.697Z,2.67
2018-09-08T17:07:36.222Z,2.00
2018-09-08T17:10:06.657Z,2.00
2018-09-08T17:12:36.166Z,1.97
2018-09-08T17:15:06.858Z,1.67
2018-09-08T17:17:36.702Z,1.20
2018-09-08T17:20:06.417Z,1.40
2018-09-08T17:22:36.084Z,1.43
2018-09-08T17:25:05.825Z,1.67
2018-09-08T17:27:35.669Z,1.50
2018-09-08T17:30:05.783Z,1.53
2018-09-08T17:32:35.740Z,1.53
2018-09-08T17:35:05.669Z,1.70
2018-09-08T17:37:35.357Z,1.80
2018-09-08T17:40:05.534Z,1.83
2018-09-08T17:42:35.232Z,1.20
2018-09-08T17:45:04.909Z,7.30
2018-09-08T17:47:34.565Z,3.47
2018-09-08T17:50:04.146Z,1.67
2018-09-08T17:52:33.809Z,1.70
2018-09-08T17:55:03.905Z,1.57
2018-09-08T17:57:33.563Z,1.13
2018-09-08T18:00:03.131Z,1.60
2018-09-08T18:02:32.902Z,1.20
2018-09-08T18:05:02.764Z,1.40
2018-09-08T18:07:32.449Z,1.43
2018-09-08T18:10:01.934Z,1.33
2018-09-08T18:12:31.564Z,1.63
2018-09-08T18:15:01.294Z,1.27
2018-09-08T18:17:30.997Z,1.10
2018-09-08T18:20:00.605Z,1.60
2018-09-08T18:22:30.529Z,1.03
2018-09-08T18:25:00.079Z,1.63
2018-09-08T18:27:29.873Z,1.40
2018-09-08T18:29:59.661Z,1.10
2018-09-08T18:32:29.269Z,1.10
2018-09-08T18:34:58.884Z,1.10
2018-09-08T18:37:28.448Z,1.37
2018-09-08T18:39:58.265Z,1.23
2018-09-08T18:42:27.941Z,1.93
2018-09-08T18:44:57.584Z,1.20
2018-09-08T18:47:27.251Z,1.47
2018-09-08T18:49:56.821Z,1.53
2018-09-08T18:52:26.597Z,0.90
2018-09-08T18:54:56.364Z,1.30
2018-09-08T18:57:26.112Z,2.13
2018-09-08T18:59:55.891Z,1.00
2018-09-08T19:02:25.614Z,1.97
2018-09-08T19:04:55.358Z,1.47
2018-09-08T19:07:24.965Z,1.90
2018-09-08T19:09:59.814Z,3.10
2018-09-08T19:12:29.576Z,3.10
2018-09-08T19:15:04.600Z,2.60
2018-09-08T19:17:34.716Z,3.23
2018-09-08T19:20:09.658Z,3.30
2018-09-08T19:22:39.153Z,3.73
2018-09-08T19:25:08.898Z,4.30
2018-09-08T19:27:39.411Z,5.07
2018-09-08T19:30:09.561Z,6.20
2018-09-08T19:32:39.393Z,6.40
2018-09-08T19:35:14.471Z,5.40
2018-09-08T19:37:44.111Z,5.87
2018-09-08T19:40:19.058Z,5.47
2018-09-08T19:42:48.854Z,6.03
2018-09-08T19:45:18.319Z,3.87
2018-09-08T19:47:53.187Z,3.73
2018-09-08T19:50:22.750Z,3.70
2018-09-08T19:52:57.729Z,2.20
2018-09-08T19:55:27.434Z,1.90
2018-09-08T19:58:02.267Z,1.33
2018-09-08T20:00:32.000Z,1.30
2018-09-08T20:03:01.990Z,1.70
2018-09-08T20:05:31.849Z,1.73
2018-09-08T20:08:01.547Z,1.37
2018-09-08T20:10:31.132Z,1.20
2018-09-08T20:13:00.837Z,1.60
2018-09-08T20:15:30.713Z,1.60
2018-09-08T20:18:00.369Z,1.97
2018-09-08T20:20:30.440Z,1.67
2018-09-08T20:22:59.941Z,1.30
2018-09-08T20:25:30.447Z,1.40
2018-09-08T20:28:00.356Z,1.37
2018-09-08T20:30:30.055Z,1.50
2018-09-08T20:33:00.017Z,1.70
2018-09-08T20:35:29.664Z,1.50
2018-09-08T20:37:59.554Z,1.40
2018-09-08T20:40:29.552Z,1.40
2018-09-08T20:42:59.164Z,1.30
2018-09-08T20:45:28.747Z,1.77
2018-09-08T20:47:58.258Z,1.40
2018-09-08T20:50:27.932Z,1.10
2018-09-08T20:52:57.943Z,1.10
2018-09-08T20:55:27.791Z,1.50
2018-09-08T20:57:57.658Z,1.47
2018-09-08T21:00:27.440Z,1.37
2018-09-08T21:02:57.056Z,1.40
2018-09-08T21:05:26.678Z,1.47
2018-09-08T21:07:56.457Z,1.83
2018-09-08T21:10:26.137Z,1.53
2018-09-08T21:12:55.865Z,3.50
2018-09-08T21:15:25.372Z,2.00
2018-09-08T21:17:54.974Z,2.00
2018-09-08T21:20:24.905Z,2.17
2018-09-08T21:22:54.599Z,1.10
2018-09-08T21:25:24.283Z,1.37
2018-09-08T21:27:54.242Z,1.37
2018-09-08T21:30:24.179Z,1.20
2018-09-08T21:32:53.729Z,1.33
2018-09-08T21:35:23.984Z,1.40
2018-09-08T21:37:53.604Z,1.00
2018-09-08T21:40:23.324Z,1.07
2018-09-08T21:42:52.987Z,1.10
2018-09-08T21:45:22.712Z,1.60
2018-09-08T21:47:52.439Z,1.33
2018-09-08T21:50:22.320Z,0.90
2018-09-08T21:52:51.942Z,2.20
2018-09-08T21:55:22.240Z,1.27
2018-09-08T21:57:52.308Z,1.30
2018-09-08T22:00:21.912Z,1.40
2018-09-08T22:02:51.494Z,1.47
2018-09-08T22:05:21.159Z,1.40
2018-09-08T22:07:50.902Z,1.43
2018-09-08T22:10:20.682Z,1.67
2018-09-08T22:12:50.798Z,3.23
2018-09-08T22:15:20.443Z,7.00
2018-09-08T22:17:49.989Z,3.33
2018-09-08T22:20:19.600Z,1.77
2018-09-08T22:22:49.291Z,1.30
2018-09-08T22:25:18.879Z,1.30
2018-09-08T22:27:48.616Z,1.30
2018-09-08T22:30:18.819Z,1.53
2018-09-08T22:32:48.443Z,1.83
2018-09-08T22:35:18.097Z,1.10
2018-09-08T22:37:47.817Z,1.30
2018-09-08T22:40:17.832Z,1.43
2018-09-08T22:42:47.421Z,2.33
2018-09-08T22:45:20.097Z,1.37
2018-09-08T22:47:49.860Z,1.30
2018-09-08T22:50:19.656Z,1.43
2018-09-08T22:52:49.112Z,1.20
2018-09-08T22:55:18.721Z,1.90
2018-09-08T22:57:48.574Z,1.70
2018-09-08T23:00:18.704Z,1.23
2018-09-08T23:02:49.185Z,1.47
2018-09-08T23:05:18.749Z,1.20
2018-09-08T23:07:48.355Z,1.80
2018-09-08T23:10:18.008Z,1.70
2018-09-08T23:12:47.491Z,1.43
2018-09-08T23:15:16.981Z,1.70
2018-09-08T23:17:46.673Z,1.37
2018-09-08T23:20:16.765Z,1.53
2018-09-08T23:22:46.494Z,1.70
2018-09-08T23:25:16.208Z,1.83
2018-09-08T23:27:45.945Z,2.17
2018-09-08T23:30:15.748Z,2.43
2018-09-08T23:32:45.570Z,1.83
2018-09-08T23:35:15.380Z,1.50
2018-09-08T23:37:45.065Z,1.47
2018-09-08T23:40:15.217Z,1.77
2018-09-08T23:42:45.176Z,1.60
2018-09-08T23:45:14.993Z,1.10
2018-09-08T23:47:44.826Z,1.60
2018-09-08T23:50:15.174Z,1.33
2018-09-08T23:52:46.020Z,1.60
2018-09-08T23:55:15.654Z,1.50
2018-09-08T23:57:45.464Z,1.70
